地図

経路データ

SID SEASON NUMBER BASIN SUBBASIN NAME ISO_TIME NATURE LAT LON WMO_WIND WMO_PRES WMO_AGENCY TRACK_TYPE DIST2LAND LANDFALL IFLAG USA_AGENCY USA_ATCF_ID USA_LAT USA_LON USA_RECORD USA_STATUS USA_WIND USA_PRES USA_SSHS USA_R34_NE USA_R34_SE USA_R34_SW USA_R34_NW USA_R50_NE USA_R50_SE USA_R50_SW USA_R50_NW USA_R64_NE USA_R64_SE USA_R64_SW USA_R64_NW USA_POCI USA_ROCI USA_RMW USA_EYE TOKYO_LAT TOKYO_LON TOKYO_GRADE TOKYO_WIND TOKYO_PRES TOKYO_R50_DIR TOKYO_R50_LONG TOKYO_R50_SHORT TOKYO_R30_DIR TOKYO_R30_LONG TOKYO_R30_SHORT TOKYO_LAND CMA_LAT CMA_LON CMA_CAT CMA_WIND CMA_PRES HKO_LAT HKO_LON HKO_CAT HKO_WIND HKO_PRES NEWDELHI_LAT NEWDELHI_LON NEWDELHI_GRADE NEWDELHI_WIND NEWDELHI_PRES NEWDELHI_CI NEWDELHI_DP NEWDELHI_POCI REUNION_LAT REUNION_LON REUNION_TYPE REUNION_WIND REUNION_PRES REUNION_TNUM REUNION_CI REUNION_RMW REUNION_R34_NE REUNION_R34_SE REUNION_R34_SW REUNION_R34_NW REUNION_R50_NE REUNION_R50_SE REUNION_R50_SW REUNION_R50_NW REUNION_R64_NE REUNION_R64_SE REUNION_R64_SW REUNION_R64_NW BOM_LAT BOM_LON BOM_TYPE BOM_WIND BOM_PRES BOM_TNUM BOM_CI BOM_RMW BOM_R34_NE BOM_R34_SE BOM_R34_SW BOM_R34_NW BOM_R50_NE BOM_R50_SE BOM_R50_SW BOM_R50_NW BOM_R64_NE BOM_R64_SE BOM_R64_SW BOM_R64_NW BOM_ROCI BOM_POCI BOM_EYE BOM_POS_METHOD BOM_PRES_METHOD NADI_LAT NADI_LON NADI_CAT NADI_WIND NADI_PRES WELLINGTON_LAT WELLINGTON_LON WELLINGTON_WIND WELLINGTON_PRES DS824_LAT DS824_LON DS824_STAGE DS824_WIND DS824_PRES TD9636_LAT TD9636_LON TD9636_STAGE TD9636_WIND TD9636_PRES TD9635_LAT TD9635_LON TD9635_WIND TD9635_PRES TD9635_ROCI NEUMANN_LAT NEUMANN_LON NEUMANN_CLASS NEUMANN_WIND NEUMANN_PRES MLC_LAT MLC_LON MLC_CLASS MLC_WIND MLC_PRES USA_GUST BOM_GUST BOM_GUST_PER REUNION_GUST REUNION_GUST_PER USA_SEAHGT USA_SEARAD_NE USA_SEARAD_SE USA_SEARAD_SW USA_SEARAD_NW STORM_SPEED STORM_DIR
1918164N19114 1918 35 WP MM NOT_NAMED 1918-06-13 10:00:00 NR 18.7000 113.500 main 281 281 __________O___ -1 18.7000 113.500 2 1 0
1918164N19114 1918 35 WP MM NOT_NAMED 1918-06-13 12:00:00 NR 18.7166 113.509 main 281 281 __________P___ -1 18.7166 113.509 2 1 0
1918164N19114 1918 35 WP MM NOT_NAMED 1918-06-13 15:00:00 NR 18.7415 113.506 main 281 277 __________P___ -1 18.7415 113.506 2 1 317
1918164N19114 1918 35 WP MM NOT_NAMED 1918-06-13 18:00:00 NR 18.7665 113.463 main 277 267 __________P___ -1 18.7665 113.463 2 2 289
1918164N19114 1918 35 WP MM NOT_NAMED 1918-06-13 21:00:00 NR 18.7916 113.355 main 267 257 __________P___ -1 18.7916 113.355 2 2 282
1918164N19114 1918 35 WP MM NOT_NAMED 1918-06-13 22:00:00 NR 18.8000 113.300 main 257 247 __________O___ -1 18.8000 113.300 2 4 278
1918164N19114 1918 35 WP MM NOT_NAMED 1918-06-14 00:00:00 NR 18.8168 113.160 main 247 218 __________P___ -1 18.8168 113.160 2 5 276
1918164N19114 1918 35 WP MM NOT_NAMED 1918-06-14 03:00:00 NR 18.8419 112.886 main 218 185 __________P___ -1 18.8419 112.886 2 6 275
1918164N19114 1918 35 WP MM NOT_NAMED 1918-06-14 06:00:00 NR 18.8669 112.562 main 185 148 __________P___ -1 18.8669 112.562 2 6 274
1918164N19114 1918 35 WP MM NOT_NAMED 1918-06-14 09:00:00 NR 18.8917 112.216 main 148 139 __________P___ -1 18.8917 112.216 2 7 274
1918164N19114 1918 35 WP MM NOT_NAMED 1918-06-14 10:00:00 NR 18.9000 112.100 main 139 122 __________O___ -1 18.9000 112.100 2 6 274
1918164N19114 1918 35 WP MM NOT_NAMED 1918-06-14 12:00:00 NR 18.9167 111.879 main 122 92 __________P___ -1 18.9167 111.879 2 6 275
1918164N19114 1918 35 WP MM NOT_NAMED 1918-06-14 15:00:00 NR 18.9418 111.540 main 92 63 __________P___ -1 18.9418 111.540 2 6 275
1918164N19114 1918 35 WP MM NOT_NAMED 1918-06-14 18:00:00 NR 18.9668 111.207 main 63 31 __________P___ -1 18.9668 111.207 2 6 275
1918164N19114 1918 35 WP MM NOT_NAMED 1918-06-14 21:00:00 NR 18.9917 110.896 main 31 21 __________P___ -1 18.9917 110.896 2 6 275
1918164N19114 1918 35 WP MM NOT_NAMED 1918-06-14 22:00:00 NR 19.0000 110.800 main 21 0 __________O___ -1 19.0000 110.800 2 5 275
1918164N19114 1918 35 WP MM NOT_NAMED 1918-06-15 00:00:00 NR 19.0138 110.632 main 0 0 __________P___ -1 19.0138 110.632 2 4 275
1918164N19114 1918 35 WP MM NOT_NAMED 1918-06-15 03:00:00 NR 19.0346 110.406 main 0 0 __________P___ -1 19.0346 110.406 2 4 276
1918164N19114 1918 35 WP MM NOT_NAMED 1918-06-15 06:00:00 NR 19.0584 110.194 main 0 0 __________P___ -1 19.0584 110.194 2 4 278
1918164N19114 1918 35 WP MM NOT_NAMED 1918-06-15 09:00:00 NR 19.0882 109.977 main 0 0 __________P___ -1 19.0882 109.977 2 4 279
1918164N19114 1918 35 WP MM NOT_NAMED 1918-06-15 10:00:00 NR 19.1000 109.900 main 0 0 __________O___ -1 19.1000 109.900 2 5 279
1918164N19114 1918 35 WP MM NOT_NAMED 1918-06-15 12:00:00 NR 19.1304 109.710 main 0 0 __________P___ -1 19.1304 109.710 2 6 280
1918164N19114 1918 35 WP MM NOT_NAMED 1918-06-15 15:00:00 NR 19.1823 109.411 main 0 0 __________P___ -1 19.1823 109.411 2 6 281
1918164N19114 1918 35 WP MM NOT_NAMED 1918-06-15 18:00:00 NR 19.2361 109.122 main 0 0 __________P___ -1 19.2361 109.122 2 5 281
1918164N19114 1918 35 WP MM NOT_NAMED 1918-06-15 21:00:00 NR 19.2855 108.871 main 0 0 __________P___ -1 19.2855 108.871 2 5 282
1918164N19114 1918 35 WP MM NOT_NAMED 1918-06-15 22:00:00 NR 19.3000 108.800 main 0 0 __________O___ -1 19.3000 108.800 2 3 281
1918164N19114 1918 35 WP MM NOT_NAMED 1918-06-16 00:00:00 NR 19.3169 108.704 main 0 0 __________P___ -1 19.3169 108.704 2 2 281
1918164N19114 1918 35 WP MM NOT_NAMED 1918-06-16 03:00:00 NR 19.3360 108.604 main 0 0 __________P___ -1 19.3360 108.604 2 2 283
1918164N19114 1918 35 WP MM NOT_NAMED 1918-06-16 06:00:00 NR 19.3559 108.527 main 15 15 __________P___ -1 19.3559 108.527 2 2 287
1918164N19114 1918 35 WP MM NOT_NAMED 1918-06-16 09:00:00 NR 19.3861 108.438 main 23 23 __________P___ -1 19.3861 108.438 2 2 291
1918164N19114 1918 35 WP MM NOT_NAMED 1918-06-16 10:00:00 NR 19.4000 108.400 main 23 23 __________O___ -1 19.4000 108.400 2 3 291
1918164N19114 1918 35 WP MM NOT_NAMED 1918-06-16 12:00:00 NR 19.4349 108.306 main 33 33 __________P___ -1 19.4349 108.306 2 3 291
1918164N19114 1918 35 WP MM NOT_NAMED 1918-06-16 15:00:00 NR 19.5023 108.126 main 57 57 __________P___ -1 19.5023 108.126 2 4 292
1918164N19114 1918 35 WP MM NOT_NAMED 1918-06-16 18:00:00 NR 19.5827 107.912 main 80 80 __________P___ -1 19.5827 107.912 2 5 292
1918164N19114 1918 35 WP MM NOT_NAMED 1918-06-16 21:00:00 NR 19.6702 107.679 main 104 104 __________P___ -1 19.6702 107.679 2 5 292
1918164N19114 1918 35 WP MM NOT_NAMED 1918-06-16 22:00:00 NR 19.7000 107.600 main 113 __________O___ -1 19.7000 107.600 2 5 290

デジタル台風データ・検索

IBTrACS Databaseについて

本データベースは、米国NOAAが公開する1842年以降の世界の熱帯低気圧のベストトラックデータアーカイブInternational Best Track Archive for Climate Stewardship (IBTrACS)を、ウェブで閲覧しやすい形式に変換したものです。

最終更新日:2021-11-26